Time;durP1;ratioP1;P1;durP2;ratioP2;P2;SDS_P1;SDS_P2;PMS_P1;PMS_P2;Temp;Humidity;BMP_temperature;BMP_pressure;BME280_temperature;BME280_humidity;BME280_pressure;Samples;Min_cycle;Max_cycle;Signal;HPM_P1;HPM_P2
2023/05/10 00:01:16;;;;;;;;;17.60;16.00;;;;;9.17;55.52;99496.47;5062561;28;8881;-75
2023/05/10 00:03:45;;;;;;;;;17.00;14.80;;;;;9.11;55.70;99490.47;5028094;28;8845;-74
2023/05/10 00:06:16;;;;;;;;;9.60;8.80;;;;;8.98;56.21;99477.53;5047261;28;8857;-73
2023/05/10 00:08:45;;;;;;;;;14.80;12.60;;;;;8.96;56.41;99481.94;5046922;28;8869;-73
2023/05/10 00:11:14;;;;;;;;;18.80;15.20;;;;;8.92;56.36;99476.78;5045447;28;8856;-74
2023/05/10 00:13:42;;;;;;;;;12.60;12.00;;;;;8.94;56.16;99478.47;5046997;28;8864;-73
2023/05/10 00:16:12;;;;;;;;;13.60;12.20;;;;;9.00;56.30;99482.75;5047439;28;8868;-73
2023/05/10 00:18:41;;;;;;;;;13.00;13.00;;;;;8.99;56.45;99478.44;5062059;28;8986;-74
2023/05/10 00:21:10;;;;;;;;;15.20;14.80;;;;;9.07;56.10;99468.66;5061050;28;8839;-75
2023/05/10 00:23:40;;;;;;;;;13.60;12.80;;;;;9.03;56.23;99473.09;5031831;28;8855;-74
2023/05/10 00:26:09;;;;;;;;;12.00;12.00;;;;;9.10;55.56;99465.13;5066985;28;8831;-75
2023/05/10 00:28:39;;;;;;;;;15.60;14.60;;;;;9.07;56.02;99457.31;5062674;28;8881;-76
2023/05/10 00:31:07;;;;;;;;;17.80;16.80;;;;;9.04;55.68;99459.09;5062360;28;9611;-72
2023/05/10 00:33:36;;;;;;;;;13.00;11.80;;;;;9.01;56.26;99451.28;5011641;28;8949;-76
2023/05/10 00:36:07;;;;;;;;;13.20;12.20;;;;;8.95;56.19;99446.16;5064518;28;8826;-74
2023/05/10 00:38:35;;;;;;;;;9.60;9.20;;;;;9.00;56.19;99438.19;5017688;28;8846;-75
2023/05/10 00:41:06;;;;;;;;;14.80;13.20;;;;;8.88;56.67;99431.41;5069859;28;8948;-74
2023/05/10 00:43:36;;;;;;;;;14.20;13.00;;;;;8.94;56.47;99441.78;5052930;28;8916;-73
2023/05/10 00:46:06;;;;;;;;;14.40;11.60;;;;;8.99;56.15;99439.94;5051684;28;8850;-73
2023/05/10 00:48:35;;;;;;;;;14.40;13.60;;;;;8.84;56.53;99434.97;5003096;28;8854;-75
2023/05/10 00:51:04;;;;;;;;;12.20;12.00;;;;;8.81;57.03;99440.25;5069826;28;8846;-73
2023/05/10 00:53:34;;;;;;;;;17.40;15.40;;;;;8.83;56.57;99433.22;5070566;28;8842;-75
2023/05/10 00:56:04;;;;;;;;;11.40;11.40;;;;;8.90;56.30;99434.00;5070646;28;8932;-75
2023/05/10 00:58:34;;;;;;;;;14.00;11.60;;;;;8.85;56.80;99431.44;5069225;28;8866;-73
2023/05/10 01:01:03;;;;;;;;;15.40;12.80;;;;;8.70;56.88;99422.03;5068974;28;8838;-73
2023/05/10 01:03:33;;;;;;;;;14.20;13.80;;;;;8.84;56.62;99416.63;5058423;28;8861;-74
2023/05/10 01:06:03;;;;;;;;;15.80;14.80;;;;;8.82;56.92;99405.28;5051747;28;9648;-75
2023/05/10 01:08:31;;;;;;;;;11.60;11.60;;;;;8.79;57.05;99415.81;5070658;28;8866;-75
2023/05/10 01:11:00;;;;;;;;;15.00;13.20;;;;;8.68;57.55;99417.72;5069186;28;8858;-72
2023/05/10 01:13:34;;;;;;;;;11.20;11.00;;;;;8.74;57.26;99415.00;5034971;28;8877;-75
2023/05/10 01:16:03;;;;;;;;;14.20;14.20;;;;;8.58;57.56;99410.00;5068663;28;8885;-74
2023/05/10 01:18:36;;;;;;;;;11.40;10.80;;;;;8.50;57.83;99411.88;5033593;28;8847;-73
2023/05/10 01:21:18;;;;;;;;;12.40;11.00;;;;;8.50;58.16;99411.03;5018307;28;8874;-74
2023/05/10 01:24:16;;;;;;;;;14.20;14.20;;;;;8.55;57.77;99407.41;5034361;28;8887;-74
2023/05/10 01:27:13;;;;;;;;;13.00;12.40;;;;;8.59;58.19;99405.63;4975303;28;8859;-74
2023/05/10 01:30:02;;;;;;;;;12.20;12.20;;;;;8.59;57.50;99403.00;4952409;28;8879;-74
2023/05/10 01:32:44;;;;;;;;;16.20;15.00;;;;;8.62;57.61;99408.22;4944132;28;9010;-75
2023/05/10 01:35:20;;;;;;;;;13.80;12.80;;;;;8.57;58.04;99404.78;4965628;28;8946;-75
2023/05/10 01:37:58;;;;;;;;;11.60;11.60;;;;;8.60;57.94;99400.38;4987929;28;9625;-75
2023/05/10 01:40:33;;;;;;;;;11.40;11.40;;;;;8.52;58.62;99397.00;4987691;28;8896;-76
2023/05/10 01:43:05;;;;;;;;;12.80;12.00;;;;;8.52;58.12;99389.16;4987141;28;8872;-75
2023/05/10 01:45:41;;;;;;;;;12.40;10.60;;;;;8.67;57.99;99403.78;4987961;28;8881;-73
2023/05/10 01:48:12;;;;;;;;;14.40;12.80;;;;;8.72;57.31;99393.19;4986607;28;8887;-74
2023/05/10 01:50:44;;;;;;;;;10.40;10.40;;;;;8.81;57.19;99385.19;4969026;28;8894;-75
2023/05/10 01:53:15;;;;;;;;;12.80;12.00;;;;;8.77;57.17;99387.00;4967694;28;8871;-74
2023/05/10 01:55:48;;;;;;;;;13.00;11.60;;;;;8.83;57.40;99383.41;4935829;28;8887;-76
2023/05/10 01:58:22;;;;;;;;;14.00;14.00;;;;;8.80;57.18;99381.72;4954506;28;8871;-74
2023/05/10 02:00:53;;;;;;;;;12.40;11.40;;;;;8.82;57.32;99379.06;4958889;28;8899;-74
2023/05/10 02:03:26;;;;;;;;;8.80;8.60;;;;;8.78;57.64;99382.63;4979247;28;8870;-72
2023/05/10 02:05:57;;;;;;;;;11.80;11.60;;;;;8.75;57.81;99385.31;5009445;28;8858;-74
2023/05/10 02:08:27;;;;;;;;;10.00;9.80;;;;;8.80;57.97;99380.88;5009921;28;8875;-74
2023/05/10 02:11:00;;;;;;;;;12.20;10.40;;;;;8.81;57.51;99378.19;5026488;28;9058;-72
2023/05/10 02:13:32;;;;;;;;;8.40;8.40;;;;;8.84;57.49;99375.53;5022509;28;8984;-74
2023/05/10 02:16:04;;;;;;;;;12.40;12.40;;;;;8.95;57.47;99374.47;4977574;28;9041;-73
2023/05/10 02:18:36;;;;;;;;;13.20;12.20;;;;;8.81;57.59;99372.94;5026323;28;9792;-73
2023/05/10 02:21:06;;;;;;;;;12.60;12.60;;;;;8.66;58.10;99373.19;5009018;28;8965;-76
2023/05/10 02:23:36;;;;;;;;;14.00;14.00;;;;;8.80;57.59;99362.50;5026010;28;8919;-75
2023/05/10 02:26:07;;;;;;;;;10.60;10.60;;;;;8.76;58.29;99368.66;5009941;28;8880;-74
2023/05/10 02:28:37;;;;;;;;;11.80;11.80;;;;;8.78;58.00;99357.28;5009559;28;8863;-74
2023/05/10 02:31:08;;;;;;;;;12.80;12.60;;;;;8.73;58.31;99361.75;5030228;28;8877;-74
2023/05/10 02:33:41;;;;;;;;;11.00;11.00;;;;;8.82;58.32;99360.72;5049877;28;8853;-73
2023/05/10 02:36:11;;;;;;;;;11.20;10.80;;;;;8.83;58.01;99362.44;5032077;28;8846;-73
2023/05/10 02:38:42;;;;;;;;;12.40;12.40;;;;;8.81;57.91;99364.22;5069075;28;8838;-74
2023/05/10 02:41:12;;;;;;;;;9.00;9.00;;;;;8.96;57.46;99363.09;5052273;28;8954;-73
2023/05/10 02:43:42;;;;;;;;;11.80;11.00;;;;;8.83;58.15;99362.44;5068909;28;8865;-74
2023/05/10 02:46:11;;;;;;;;;14.40;12.20;;;;;8.73;58.75;99358.25;5069079;28;8861;-73
2023/05/10 02:48:42;;;;;;;;;13.80;13.40;;;;;8.78;58.45;99351.16;5052193;28;8854;-73
2023/05/10 02:51:17;;;;;;;;;14.00;13.00;;;;;8.63;59.13;99345.31;5025726;28;9478;-73
2023/05/10 02:53:49;;;;;;;;;13.80;12.80;;;;;8.50;59.89;99346.38;5025510;28;9069;-74
2023/05/10 02:56:29;;;;;;;;;12.20;12.20;;;;;8.61;59.60;99340.97;4991735;28;8861;-74
2023/05/10 02:58:58;;;;;;;;;14.20;14.20;;;;;8.58;59.44;99341.88;5008874;28;8844;-75
2023/05/10 03:01:27;;;;;;;;;12.60;12.60;;;;;8.58;59.09;99333.16;4941261;28;8879;-73
2023/05/10 03:03:57;;;;;;;;;11.20;11.20;;;;;8.50;60.15;99327.19;5005608;28;9604;-74
2023/05/10 03:06:26;;;;;;;;;15.00;13.80;;;;;8.60;59.74;99332.25;4989431;28;8872;-74
2023/05/10 03:08:56;;;;;;;;;15.40;13.40;;;;;8.62;59.71;99338.31;5005241;28;8863;-73
2023/05/10 03:11:33;;;;;;;;;14.00;14.00;;;;;8.68;59.62;99331.25;5005543;28;8905;-74
2023/05/10 03:14:22;;;;;;;;;12.00;11.80;;;;;8.48;60.51;99339.41;5018829;28;8850;-72
2023/05/10 03:17:01;;;;;;;;;16.75;16.75;;;;;8.61;59.94;99344.47;5014799;28;8857;-74
2023/05/10 03:19:40;;;;;;;;;16.80;15.60;;;;;8.67;60.05;99347.84;5025259;28;8877;-76
2023/05/10 03:22:12;;;;;;;;;14.60;12.60;;;;;8.73;59.87;99351.25;5024878;28;8962;-74
2023/05/10 03:24:43;;;;;;;;;14.80;14.40;;;;;8.76;59.89;99348.59;4992677;28;8849;-76
2023/05/10 03:27:14;;;;;;;;;13.00;12.60;;;;;8.82;59.65;99350.25;5008496;28;8877;-73
2023/05/10 03:29:46;;;;;;;;;12.60;12.40;;;;;8.83;59.62;99354.59;5019648;28;8846;-73
2023/05/10 03:32:15;;;;;;;;;15.60;14.00;;;;;8.88;59.45;99344.88;5062882;28;8889;-76
2023/05/10 03:34:45;;;;;;;;;12.60;12.20;;;;;8.95;59.13;99349.16;5079757;28;8833;-72
2023/05/10 03:37:14;;;;;;;;;15.00;13.80;;;;;8.98;59.17;99337.72;5065044;28;8854;-76
2023/05/10 03:39:43;;;;;;;;;15.80;12.40;;;;;9.08;58.71;99346.28;5064877;28;8824;-75
2023/05/10 03:42:12;;;;;;;;;18.20;17.60;;;;;9.04;59.04;99343.75;5030945;28;9041;-73
2023/05/10 03:44:41;;;;;;;;;19.00;18.20;;;;;9.02;59.49;99339.41;4999540;28;8844;-76
2023/05/10 03:47:10;;;;;;;;;12.60;12.20;;;;;9.17;58.84;99328.63;5063659;28;8848;-75
2023/05/10 03:49:39;;;;;;;;;13.00;12.60;;;;;9.11;59.28;99334.00;5064728;28;8883;-72
2023/05/10 03:52:09;;;;;;;;;13.00;13.00;;;;;9.08;59.45;99335.81;4972368;28;8948;-75
2023/05/10 03:54:38;;;;;;;;;16.60;14.80;;;;;9.22;58.53;99328.56;4988424;28;8851;-73
2023/05/10 03:57:07;;;;;;;;;16.20;14.40;;;;;9.29;58.74;99330.16;5004502;28;8916;-74
2023/05/10 03:59:36;;;;;;;;;15.40;14.40;;;;;9.36;58.21;99338.78;5004679;28;8866;-74
2023/05/10 04:02:04;;;;;;;;;17.00;16.00;;;;;9.35;58.53;99337.06;4992704;28;8985;-75
2023/05/10 04:04:33;;;;;;;;;16.40;15.60;;;;;9.46;58.05;99348.22;5004711;28;8957;-73
2023/05/10 04:07:02;;;;;;;;;13.40;12.80;;;;;9.65;57.29;99343.50;5004877;28;8870;-74
2023/05/10 04:09:33;;;;;;;;;9.80;9.00;;;;;9.59;57.48;99336.59;4956921;28;8917;-75
2023/05/10 04:12:02;;;;;;;;;13.60;13.60;;;;;9.59;57.08;99341.84;5004622;28;9038;-73
2023/05/10 04:14:31;;;;;;;;;11.80;11.80;;;;;9.52;57.55;99345.47;4991974;28;8932;-75
2023/05/10 04:17:01;;;;;;;;;16.20;14.00;;;;;9.37;57.84;99344.00;5013837;28;8832;-75
2023/05/10 04:19:31;;;;;;;;;21.00;20.00;;;;;9.50;57.40;99344.63;5028458;28;8863;-73
2023/05/10 04:21:59;;;;;;;;;16.80;14.20;;;;;9.52;57.50;99347.22;4996001;28;8840;-76
2023/05/10 04:24:29;;;;;;;;;12.80;12.00;;;;;9.59;57.27;99343.59;5068332;28;8861;-74
2023/05/10 04:26:59;;;;;;;;;16.40;15.60;;;;;9.45;58.05;99359.59;5071425;28;9791;-73
2023/05/10 04:29:28;;;;;;;;;15.20;14.60;;;;;9.39;58.12;99352.69;5070920;28;8855;-74
2023/05/10 04:31:56;;;;;;;;;12.20;12.00;;;;;9.50;57.95;99362.09;5067901;28;10084;-75
2023/05/10 04:34:26;;;;;;;;;24.60;23.40;;;;;9.59;57.73;99357.59;5049656;28;8838;-74
2023/05/10 04:36:55;;;;;;;;;16.80;16.40;;;;;9.55;58.13;99365.50;5050992;28;8971;-75
2023/05/10 04:39:23;;;;;;;;;13.00;13.00;;;;;9.52;58.34;99350.69;5065836;28;8860;-75
2023/05/10 04:41:52;;;;;;;;;14.40;13.40;;;;;9.54;58.54;99363.81;5059844;28;9041;-73
2023/05/10 04:44:23;;;;;;;;;17.20;14.60;;;;;9.60;58.42;99366.31;5050069;28;8860;-73
2023/05/10 04:46:51;;;;;;;;;13.60;13.60;;;;;9.78;57.74;99363.34;5050571;28;8860;-73
2023/05/10 04:49:20;;;;;;;;;15.80;14.60;;;;;9.79;57.67;99359.81;5015103;28;8845;-75
2023/05/10 04:51:49;;;;;;;;;15.40;14.40;;;;;9.88;57.92;99368.41;5048714;28;8841;-75
2023/05/10 04:54:18;;;;;;;;;16.60;15.40;;;;;10.08;57.36;99360.06;5050589;28;8974;-76
2023/05/10 04:56:46;;;;;;;;;14.60;13.00;;;;;10.10;57.32;99353.03;5053243;28;8920;-74
2023/05/10 04:59:16;;;;;;;;;15.60;14.80;;;;;10.14;57.50;99350.31;5068008;28;8868;-75
2023/05/10 05:01:45;;;;;;;;;21.00;20.00;;;;;10.17;57.50;99344.97;5007169;28;8985;-75
2023/05/10 05:04:15;;;;;;;;;12.80;12.80;;;;;10.09;57.80;99344.28;4982198;28;8866;-74
2023/05/10 05:06:44;;;;;;;;;18.20;15.00;;;;;10.21;57.44;99349.25;4964671;28;9606;-75
2023/05/10 05:09:13;;;;;;;;;16.20;16.20;;;;;10.23;57.80;99357.09;4975209;28;8917;-76
2023/05/10 05:11:41;;;;;;;;;17.80;14.20;;;;;10.32;57.49;99351.66;5007357;28;8884;-74
2023/05/10 05:14:10;;;;;;;;;16.60;16.40;;;;;10.46;58.02;99342.56;5009752;28;8879;-77
2023/05/10 05:16:39;;;;;;;;;15.00;14.40;;;;;10.51;57.60;99352.06;4974384;28;8852;-74
2023/05/10 05:19:09;;;;;;;;;17.40;15.80;;;;;10.50;58.08;99342.47;5000016;28;8863;-76
2023/05/10 05:21:38;;;;;;;;;17.40;15.00;;;;;10.76;57.21;99344.50;5005947;28;8868;-75
2023/05/10 05:24:08;;;;;;;;;16.80;15.60;;;;;10.93;56.99;99349.31;5006016;28;8871;-75
2023/05/10 05:26:37;;;;;;;;;18.00;17.20;;;;;10.94;57.07;99351.06;5007057;28;9676;-75
2023/05/10 05:29:06;;;;;;;;;20.40;17.00;;;;;11.06;56.12;99349.88;4987640;28;8881;-76
2023/05/10 05:31:35;;;;;;;;;17.60;17.60;;;;;11.15;56.21;99349.63;4999530;28;8910;-77
2023/05/10 05:34:04;;;;;;;;;21.40;19.20;;;;;11.24;55.41;99340.63;5063613;28;8891;-74
2023/05/10 05:36:38;;;;;;;;;17.20;15.80;;;;;11.13;56.06;99338.28;5053574;28;8858;-75
2023/05/10 05:39:07;;;;;;;;;16.60;16.60;;;;;11.46;54.83;99342.66;5014247;28;8865;-76
2023/05/10 05:41:35;;;;;;;;;14.80;14.80;;;;;11.52;54.93;99340.75;5056198;28;8892;-79
2023/05/10 05:44:04;;;;;;;;;14.60;14.40;;;;;11.46;54.81;99343.53;5061575;28;8953;-76
2023/05/10 05:46:33;;;;;;;;;18.20;14.40;;;;;11.40;54.94;99333.19;5066457;28;9602;-77
2023/05/10 05:49:02;;;;;;;;;15.80;15.20;;;;;11.64;54.02;99338.66;5066909;28;8864;-78
2023/05/10 05:51:32;;;;;;;;;16.00;15.60;;;;;11.72;53.92;99337.53;5066330;28;8855;-76
2023/05/10 05:54:04;;;;;;;;;17.20;16.00;;;;;11.81;53.93;99343.44;5050192;28;8864;-76
2023/05/10 05:56:33;;;;;;;;;17.80;16.40;;;;;11.67;53.52;99344.72;5050570;28;8928;-76
2023/05/10 05:59:02;;;;;;;;;18.60;17.80;;;;;11.63;54.08;99350.94;5049415;28;8848;-75
2023/05/10 06:01:31;;;;;;;;;15.20;14.40;;;;;11.67;53.88;99357.00;5049940;28;8836;-75
2023/05/10 06:03:59;;;;;;;;;13.60;13.00;;;;;11.64;54.10;99339.53;5066564;28;8859;-76
2023/05/10 06:06:29;;;;;;;;;17.80;17.80;;;;;11.85;53.32;99351.22;5066269;28;8884;-77
2023/05/10 06:08:57;;;;;;;;;14.40;14.40;;;;;11.98;52.54;99343.84;5052941;28;8852;-80
2023/05/10 06:11:28;;;;;;;;;17.00;15.00;;;;;11.77;52.46;99325.09;5067990;28;8860;-79
2023/05/10 06:13:59;;;;;;;;;15.00;15.00;;;;;11.92;52.75;99341.41;5055249;28;8862;-79
2023/05/10 06:16:28;;;;;;;;;13.60;13.20;;;;;12.03;52.20;99339.31;5055712;28;8854;-76
2023/05/10 06:18:57;;;;;;;;;14.60;14.60;;;;;12.09;52.17;99344.38;5048681;28;8967;-79
2023/05/10 06:21:26;;;;;;;;;12.40;12.20;;;;;12.39;50.98;99346.09;5068195;28;8893;-79
2023/05/10 06:23:55;;;;;;;;;15.20;14.20;;;;;12.44;51.37;99347.66;5066399;28;8823;-77
2023/05/10 06:26:24;;;;;;;;;14.80;13.60;;;;;12.24;51.66;99336.88;5055036;28;9596;-78
2023/05/10 06:28:55;;;;;;;;;17.00;16.00;;;;;12.31;51.08;99327.88;5016929;28;8996;-77
2023/05/10 06:31:24;;;;;;;;;15.20;13.60;;;;;12.31;51.14;99343.69;5067833;28;9595;-76
2023/05/10 06:33:53;;;;;;;;;14.80;13.80;;;;;12.40;50.74;99347.81;5032407;28;8882;-76
2023/05/10 06:36:26;;;;;;;;;18.60;15.60;;;;;12.48;50.57;99345.81;5066234;28;8835;-76
2023/05/10 06:38:54;;;;;;;;;16.80;11.60;;;;;12.80;49.94;99333.34;5066736;28;8940;-77
2023/05/10 06:41:24;;;;;;;;;14.80;13.40;;;;;13.04;49.27;99358.94;5057840;28;9578;-76
2023/05/10 06:43:52;;;;;;;;;15.80;14.20;;;;;13.05;49.06;99346.59;5056899;28;8857;-75
2023/05/10 06:46:23;;;;;;;;;13.20;13.20;;;;;13.24;48.69;99346.81;5066282;28;8858;-78
2023/05/10 06:48:51;;;;;;;;;12.00;11.00;;;;;13.23;48.56;99348.59;5068745;28;8854;-75
2023/05/10 06:51:21;;;;;;;;;11.80;11.00;;;;;13.14;49.25;99358.63;5068125;28;8862;-76
2023/05/10 06:53:49;;;;;;;;;13.40;13.40;;;;;13.36;48.67;99351.66;5068339;28;8977;-79
2023/05/10 06:56:21;;;;;;;;;14.80;14.80;;;;;13.53;48.50;99351.06;5066635;28;8838;-77
2023/05/10 06:58:50;;;;;;;;;14.60;13.20;;;;;13.33;48.69;99351.75;5068220;28;8842;-78
2023/05/10 07:01:19;;;;;;;;;12.40;12.20;;;;;13.53;48.17;99351.06;5068110;28;8862;-76
2023/05/10 07:03:49;;;;;;;;;13.80;13.80;;;;;13.79;47.75;99363.31;5067717;28;8858;-77
2023/05/10 07:06:18;;;;;;;;;12.80;12.80;;;;;13.83;47.91;99369.38;5067935;28;8862;-76
2023/05/10 07:09:01;;;;;;;;;14.00;13.20;;;;;13.79;47.93;99362.44;5066942;28;8919;-78
2023/05/10 07:11:30;;;;;;;;;12.80;12.80;;;;;13.68;47.35;99354.94;5067836;28;8932;-76
2023/05/10 07:13:59;;;;;;;;;11.40;11.40;;;;;13.66;47.49;99360.25;5068031;28;9642;-80
2023/05/10 07:16:28;;;;;;;;;9.80;9.80;;;;;13.78;47.23;99366.88;5048928;28;8838;-76
2023/05/10 07:18:58;;;;;;;;;14.60;13.00;;;;;13.94;46.89;99354.00;5032520;28;8912;-76
2023/05/10 07:21:28;;;;;;;;;14.20;14.00;;;;;14.09;47.06;99358.69;5068137;28;8863;-77
2023/05/10 07:23:57;;;;;;;;;15.00;15.00;;;;;13.98;46.89;99352.06;5066214;28;8858;-75
2023/05/10 07:26:26;;;;;;;;;14.40;14.20;;;;;13.77;47.44;99348.41;5067333;28;9644;-75
2023/05/10 07:28:55;;;;;;;;;12.20;11.20;;;;;13.57;47.38;99354.47;5067206;28;8847;-75
2023/05/10 07:31:24;;;;;;;;;12.40;12.40;;;;;13.78;47.25;99336.94;5067858;28;8851;-77
2023/05/10 07:33:53;;;;;;;;;8.60;8.00;;;;;13.81;47.58;99353.59;5066823;28;8862;-75
2023/05/10 07:36:23;;;;;;;;;13.00;13.00;;;;;14.06;46.75;99350.88;5067349;28;8850;-75
2023/05/10 07:38:51;;;;;;;;;10.20;10.20;;;;;14.04;47.28;99354.50;5031881;28;8897;-76
2023/05/10 07:41:20;;;;;;;;;12.60;12.60;;;;;14.12;46.88;99362.13;5049458;28;8846;-77
2023/05/10 07:43:49;;;;;;;;;14.20;14.20;;;;;14.08;46.80;99356.09;5067291;28;8897;-76
2023/05/10 07:46:19;;;;;;;;;14.20;13.40;;;;;14.08;46.62;99358.75;5015183;28;8928;-79
2023/05/10 07:48:47;;;;;;;;;16.20;15.80;;;;;14.11;46.43;99350.69;5065946;28;8854;-76
2023/05/10 07:51:16;;;;;;;;;16.20;16.20;;;;;14.04;46.75;99352.69;5012914;28;8860;-75
2023/05/10 07:53:46;;;;;;;;;16.20;15.60;;;;;14.00;47.11;99340.53;5047902;28;8842;-75
2023/05/10 07:56:24;;;;;;;;;14.00;13.20;;;;;14.17;46.31;99358.38;5047611;28;8880;-78
2023/05/10 07:58:53;;;;;;;;;13.60;13.60;;;;;14.05;46.30;99358.84;5047389;28;8899;-75
2023/05/10 08:01:23;;;;;;;;;11.80;11.40;;;;;13.89;47.10;99355.94;5055198;28;8859;-75
2023/05/10 08:03:53;;;;;;;;;11.60;11.60;;;;;13.95;46.81;99355.69;5066256;28;8997;-76
2023/05/10 08:06:23;;;;;;;;;12.80;12.80;;;;;14.10;47.04;99359.53;5067060;28;8975;-77
2023/05/10 08:08:53;;;;;;;;;13.40;11.80;;;;;14.07;46.46;99364.94;5067562;28;8980;-75
2023/05/10 08:11:23;;;;;;;;;9.60;9.60;;;;;13.98;46.48;99360.00;5064849;28;8855;-77
2023/05/10 08:13:52;;;;;;;;;9.60;9.00;;;;;14.20;46.08;99354.75;5064361;28;8945;-78
2023/05/10 08:16:21;;;;;;;;;13.80;13.20;;;;;14.06;46.34;99360.59;5064353;28;8832;-76
2023/05/10 08:18:51;;;;;;;;;12.40;11.00;;;;;14.13;46.44;99353.25;5064453;28;8899;-76
2023/05/10 08:21:20;;;;;;;;;13.40;12.00;;;;;14.13;46.61;99354.16;5047671;28;8852;-76
2023/05/10 08:23:49;;;;;;;;;11.40;11.40;;;;;14.45;46.24;99358.16;5064147;28;8875;-75
2023/05/10 08:26:20;;;;;;;;;13.60;12.40;;;;;14.48;45.61;99342.16;5023839;28;8880;-77
2023/05/10 08:28:49;;;;;;;;;10.00;9.80;;;;;14.41;45.62;99347.75;5007344;28;8868;-75
2023/05/10 08:31:18;;;;;;;;;10.20;10.20;;;;;14.46;45.05;99373.09;5008319;28;8864;-76
2023/05/10 08:33:47;;;;;;;;;10.00;10.00;;;;;14.46;45.46;99346.66;5008300;28;8860;-75
2023/05/10 08:36:21;;;;;;;;;10.80;10.80;;;;;14.29;45.92;99351.75;5005152;28;8879;-78
2023/05/10 08:38:51;;;;;;;;;10.40;10.40;;;;;14.49;45.44;99350.97;5005139;28;8871;-76
2023/05/10 08:41:23;;;;;;;;;10.60;10.20;;;;;14.70;45.24;99358.94;4989270;28;8879;-74
2023/05/10 08:43:52;;;;;;;;;11.00;11.00;;;;;14.75;45.22;99365.78;5008580;28;8917;-74
2023/05/10 08:46:23;;;;;;;;;14.60;13.80;;;;;14.65;45.29;99369.72;4976359;28;9529;-75
2023/05/10 08:48:52;;;;;;;;;11.40;11.40;;;;;14.68;45.06;99367.81;5024602;28;8876;-75
2023/05/10 08:51:26;;;;;;;;;8.00;8.00;;;;;14.79;44.23;99364.75;5004708;28;8897;-77
2023/05/10 08:53:55;;;;;;;;;11.80;11.80;;;;;14.79;43.76;99353.28;4971899;28;8875;-76
2023/05/10 08:56:26;;;;;;;;;11.20;11.20;;;;;14.84;44.42;99359.25;5007116;28;8894;-77
2023/05/10 08:58:55;;;;;;;;;13.00;12.40;;;;;15.15;43.61;99355.31;5028584;28;8915;-77
2023/05/10 09:01:24;;;;;;;;;10.40;10.40;;;;;15.16;44.28;99365.00;5048005;28;8835;-77
2023/05/10 09:03:53;;;;;;;;;12.80;11.80;;;;;15.44;42.93;99360.22;5030933;28;8862;-75
2023/05/10 09:06:23;;;;;;;;;11.20;10.20;;;;;15.75;42.36;99365.97;5047775;28;8906;-79
2023/05/10 09:08:53;;;;;;;;;11.80;11.80;;;;;15.76;42.16;99363.25;5047359;28;8870;-76
2023/05/10 09:11:22;;;;;;;;;12.40;12.00;;;;;15.56;42.43;99364.09;5047204;28;8850;-76
2023/05/10 09:13:53;;;;;;;;;10.00;10.00;;;;;15.68;41.34;99375.09;5030976;28;9039;-76
2023/05/10 09:16:22;;;;;;;;;12.20;12.00;;;;;15.97;41.53;99369.34;5030908;28;9083;-76
2023/05/10 09:18:51;;;;;;;;;12.20;11.40;;;;;16.07;41.36;99368.94;5030643;28;8982;-76
2023/05/10 09:21:20;;;;;;;;;14.20;12.60;;;;;16.18;41.15;99364.84;5030625;28;8920;-76
2023/05/10 09:23:50;;;;;;;;;13.60;11.60;;;;;16.49;40.52;99381.13;5066589;28;8917;-74
2023/05/10 09:26:23;;;;;;;;;9.60;9.00;;;;;16.76;40.10;99374.47;5067454;28;8846;-76
2023/05/10 09:28:56;;;;;;;;;11.00;11.00;;;;;16.62;39.64;99368.97;5085779;28;8852;-75
2023/05/10 09:31:43;;;;;;;;;10.80;8.60;;;;;16.60;39.38;99365.53;5070517;28;8864;-77
2023/05/10 09:34:12;;;;;;;;;8.80;8.60;;;;;16.55;39.75;99359.59;5087242;28;8886;-74
2023/05/10 09:36:52;;;;;;;;;10.60;10.20;;;;;16.45;39.53;99340.59;5070713;28;8867;-77
2023/05/10 09:39:21;;;;;;;;;9.20;8.40;;;;;16.44;39.65;99352.16;5083910;28;8870;-77
2023/05/10 09:41:50;;;;;;;;;8.40;7.60;;;;;16.69;39.42;99348.31;5035256;28;8839;-77
2023/05/10 09:44:20;;;;;;;;;7.00;6.60;;;;;16.86;38.96;99356.28;5069930;28;8989;-76
2023/05/10 09:46:52;;;;;;;;;7.40;7.20;;;;;16.81;38.76;99350.34;5033876;28;8851;-77
2023/05/10 09:49:22;;;;;;;;;9.40;9.40;;;;;16.52;39.16;99343.84;5050654;28;8897;-76
2023/05/10 09:52:02;;;;;;;;;10.20;9.60;;;;;16.49;39.06;99341.31;5069735;28;8862;-78
2023/05/10 09:54:31;;;;;;;;;12.00;11.40;;;;;16.66;39.28;99353.75;5067673;28;8839;-77
2023/05/10 09:57:01;;;;;;;;;8.60;8.60;;;;;16.69;39.11;99343.84;5068994;28;8854;-76
2023/05/10 09:59:31;;;;;;;;;7.80;7.60;;;;;16.62;39.19;99331.81;5067954;28;8931;-77
2023/05/10 10:02:01;;;;;;;;;8.20;8.20;;;;;16.50;39.25;99343.91;5069463;28;8947;-76
2023/05/10 10:04:30;;;;;;;;;8.40;8.40;;;;;16.49;38.85;99355.44;5068129;28;9005;-77
2023/05/10 10:07:04;;;;;;;;;9.00;8.80;;;;;16.57;38.47;99350.63;5069191;28;8834;-77
2023/05/10 10:09:33;;;;;;;;;7.20;7.20;;;;;16.58;38.92;99341.72;5068849;28;8866;-76
2023/05/10 10:12:03;;;;;;;;;8.60;8.60;;;;;16.77;38.60;99339.00;5048888;28;8842;-76
2023/05/10 10:14:35;;;;;;;;;9.20;9.20;;;;;16.52;39.16;99346.47;5068832;28;8888;-75
2023/05/10 10:17:04;;;;;;;;;7.00;6.60;;;;;16.69;38.30;99335.88;5085757;28;8854;-75
2023/05/10 10:19:36;;;;;;;;;5.60;5.60;;;;;16.52;38.32;99323.44;5086604;28;8988;-76
2023/05/10 10:22:06;;;;;;;;;1.20;1.20;;;;;16.74;38.29;99331.22;5086240;28;8876;-75
2023/05/10 10:24:35;;;;;;;;;8.60;8.60;;;;;16.61;38.76;99324.81;5069046;28;9003;-76
2023/05/10 10:27:15;;;;;;;;;10.20;10.20;;;;;16.81;38.18;99329.09;5085967;28;8862;-77
2023/05/10 10:29:57;;;;;;;;;7.00;7.00;;;;;16.70;38.46;99328.78;5085966;28;8861;-77
2023/05/10 10:32:38;;;;;;;;;9.40;9.00;;;;;17.02;37.98;99331.59;5086529;28;8857;-78
2023/05/10 10:35:09;;;;;;;;;8.20;8.20;;;;;16.81;37.98;99321.13;5085617;28;8883;-76
2023/05/10 10:37:45;;;;;;;;;8.60;8.00;;;;;16.82;37.21;99306.94;5086009;28;8856;-76
2023/05/10 10:40:27;;;;;;;;;8.00;8.00;;;;;16.79;37.07;99317.72;5085708;28;9618;-76
2023/05/10 10:42:57;;;;;;;;;10.00;10.00;;;;;16.68;37.72;99310.31;5065445;28;8836;-75
2023/05/10 10:45:27;;;;;;;;;10.00;8.80;;;;;16.82;37.30;99311.41;5048967;28;8856;-75
2023/05/10 10:48:29;;;;;;;;;7.60;7.60;;;;;16.93;37.32;99317.03;5062943;28;8999;-76
2023/05/10 10:50:58;;;;;;;;;8.20;7.60;;;;;16.94;37.41;99314.25;5006021;28;9059;-75
2023/05/10 10:53:28;;;;;;;;;7.20;7.20;;;;;17.06;37.28;99315.47;5005969;28;8911;-76
2023/05/10 10:56:09;;;;;;;;;8.00;8.00;;;;;17.27;36.70;99310.84;5014757;28;8859;-77
2023/05/10 10:58:39;;;;;;;;;8.60;7.60;;;;;17.36;36.29;99304.19;5025017;28;8875;-77
2023/05/10 11:01:17;;;;;;;;;6.40;6.40;;;;;17.35;36.60;99305.13;5025330;28;8997;-74
2023/05/10 11:04:20;;;;;;;;;8.00;7.60;;;;;17.45;36.57;99316.97;5025035;28;8902;-75
2023/05/10 11:06:49;;;;;;;;;6.00;6.00;;;;;17.64;36.29;99303.56;5025033;28;8867;-76
2023/05/10 11:09:18;;;;;;;;;8.00;8.00;;;;;17.55;35.98;99304.06;5008644;28;8867;-75
2023/05/10 11:11:52;;;;;;;;;5.40;5.40;;;;;17.82;35.99;99293.75;5024975;28;8867;-77
2023/05/10 11:14:22;;;;;;;;;4.60;4.60;;;;;17.80;36.09;99279.66;5025205;28;8874;-78
2023/05/10 11:16:52;;;;;;;;;8.60;8.60;;;;;17.83;35.55;99287.47;4992299;28;9045;-76
2023/05/10 11:19:21;;;;;;;;;7.80;7.60;;;;;17.82;35.64;99284.91;5024977;28;8855;-76
2023/05/10 11:21:51;;;;;;;;;7.00;6.80;;;;;17.83;35.30;99281.28;5034166;28;8877;-74
2023/05/10 11:24:23;;;;;;;;;7.60;7.40;;;;;18.00;35.25;99289.19;5058110;28;9008;-75
2023/05/10 11:26:52;;;;;;;;;7.00;7.00;;;;;18.03;35.04;99285.50;5034048;28;8888;-76
2023/05/10 11:29:21;;;;;;;;;5.60;5.60;;;;;18.19;34.75;99288.19;5068124;28;8856;-76
2023/05/10 11:31:52;;;;;;;;;8.20;8.20;;;;;18.29;34.85;99284.03;5067624;28;8846;-76
2023/05/10 11:34:25;;;;;;;;;7.80;7.80;;;;;18.29;34.88;99279.59;5067859;28;9012;-74
2023/05/10 11:36:55;;;;;;;;;8.00;7.80;;;;;18.28;34.51;99288.50;5067381;28;8866;-77
2023/05/10 11:39:27;;;;;;;;;6.80;6.80;;;;;18.44;34.58;99282.31;5067749;28;8843;-77
2023/05/10 11:41:57;;;;;;;;;6.40;6.40;;;;;18.44;34.55;99287.63;5049255;28;8847;-76
2023/05/10 11:44:30;;;;;;;;;7.20;7.20;;;;;18.67;34.12;99281.84;5050249;28;8858;-77
2023/05/10 11:47:01;;;;;;;;;7.60;7.60;;;;;18.88;34.32;99271.75;5049382;28;8868;-76
2023/05/10 11:49:31;;;;;;;;;7.60;7.20;;;;;19.09;33.52;99264.25;5066918;28;8859;-77